KEWK/EWK METAR and TAF weather

Enter ICAO airport designator
Station Type Date Time Source
KEWK METAR 2022/11/30 15:56 UTC NOAA

KEWK 301556Z AUTO 36008KT 10SM CLR M03/M09 A3043 RMK AO2 SLP322 T10281094 FZRANO


Station Type Date Time Source
KEWK Decoded METAR 2022/11/30 15:56 UTC NOAA

Newton, Newton City/County Airport, KS, United States (KEWK) 38-03N 097-17W
Nov 30, 2022 - 10:56 AM EST / 2022.11.30 1556 UTC
Wind: from the N (360 degrees) at 9 MPH (8 KT):0
Visibility: 10 mile(s):0
Sky conditions: clear
Temperature: 27.0 F (-2.8 C)
Windchill: 17 F (-8 C):1
Dew Point: 15.1 F (-9.4 C)
Relative Humidity: 60%
Pressure (altimeter): 30.43 in. Hg (1030 hPa)
ob: KEWK 301556Z AUTO 36008KT 10SM CLR M03/M09 A3043 RMK AO2 SLP322 T10281094 FZRANO
cycle: 16

Station Type Date Time Source
KEWK TAF UTC NOAA

Error!

Example: see airport list